Time;durP1;ratioP1;P1;durP2;ratioP2;P2;SDS_P1;SDS_P2;PMS_P1;PMS_P2;Temp;Humidity;BMP_temperature;BMP_pressure;BME280_temperature;BME280_humidity;BME280_pressure;Samples;Min_cycle;Max_cycle;Signal;HPM_P1;HPM_P2
2022/01/15 00:00:27;;;;;;;54.20;22.70;;;;;;;;;;5008614;28;20576;-61
2022/01/15 00:02:52;;;;;;;49.03;23.23;;;;;;;;;;4993934;28;20304;-61
2022/01/15 00:05:18;;;;;;;45.10;21.70;;;;;;;;;;4992772;28;20693;-61
2022/01/15 00:07:47;;;;;;;42.77;21.30;;;;;;;;;;4993758;28;20217;-61
2022/01/15 00:10:12;;;;;;;42.22;20.70;;;;;;;;;;4992732;28;20220;-61
2022/01/15 00:12:40;;;;;;;44.73;20.00;;;;;;;;;;4993359;28;20229;-61
2022/01/15 00:15:06;;;;;;;47.27;20.87;;;;;;;;;;4993180;28;20260;-61
2022/01/15 00:17:45;;;;;;;38.00;18.23;;;;;;;;;;4978348;28;20568;-61
2022/01/15 00:20:10;;;;;;;38.57;18.40;;;;;;;;;;4973760;28;20756;-61
2022/01/15 00:22:36;;;;;;;41.20;19.87;;;;;;;;;;4989629;28;20296;-61
2022/01/15 00:25:01;;;;;;;50.83;21.03;;;;;;;;;;5011950;28;20232;-61
2022/01/15 00:27:26;;;;;;;43.77;21.70;;;;;;;;;;5013190;28;20259;-61
2022/01/15 00:29:51;;;;;;;48.63;21.53;;;;;;;;;;5013230;28;20216;-61
2022/01/15 00:32:17;;;;;;;45.20;22.23;;;;;;;;;;5011781;28;20694;-61
2022/01/15 00:34:42;;;;;;;49.77;22.40;;;;;;;;;;5012972;28;20279;-61
2022/01/15 00:37:07;;;;;;;48.33;21.70;;;;;;;;;;5012826;28;20218;-61
2022/01/15 00:39:32;;;;;;;49.83;21.67;;;;;;;;;;5012403;28;20220;-61
2022/01/15 00:41:58;;;;;;;75.32;23.40;;;;;;;;;;5013187;28;20680;-61
2022/01/15 00:44:23;;;;;;;69.43;21.40;;;;;;;;;;5011550;28;20224;-61
2022/01/15 00:46:48;;;;;;;56.20;20.53;;;;;;;;;;5012112;28;20212;-61
2022/01/15 00:49:14;;;;;;;48.50;21.00;;;;;;;;;;5012112;28;20687;-61
2022/01/15 00:51:39;;;;;;;45.63;20.17;;;;;;;;;;5012615;28;20224;-61
2022/01/15 00:54:04;;;;;;;47.83;19.63;;;;;;;;;;5011318;28;20695;-61
2022/01/15 00:56:30;;;;;;;45.20;19.52;;;;;;;;;;4975752;28;20270;-61
2022/01/15 00:58:56;;;;;;;39.17;18.37;;;;;;;;;;5008663;28;20204;-61
2022/01/15 01:01:21;;;;;;;41.80;19.40;;;;;;;;;;4998854;28;20229;-61
2022/01/15 01:03:47;;;;;;;43.77;19.50;;;;;;;;;;4993067;28;20691;-61
2022/01/15 01:06:12;;;;;;;38.70;18.03;;;;;;;;;;4975083;28;20224;-61
2022/01/15 01:08:37;;;;;;;40.43;17.93;;;;;;;;;;4992116;28;20300;-61
2022/01/15 01:11:10;;;;;;;36.20;17.43;;;;;;;;;;4992523;28;20243;-61
2022/01/15 01:24:22;;;;;;;31.77;15.00;;;;;;;;;;5001084;28;20565;-61
2022/01/15 01:26:55;;;;;;;34.78;15.68;;;;;;;;;;5016507;28;20212;-61
2022/01/15 01:32:03;;;;;;;35.47;16.43;;;;;;;;;;4998362;28;20231;-61
2022/01/15 01:34:31;;;;;;;40.33;18.57;;;;;;;;;;5016032;28;20235;-61
2022/01/15 01:39:24;;;;;;;40.03;17.77;;;;;;;;;;5015850;28;20300;-61
2022/01/15 01:42:12;;;;;;;50.20;18.37;;;;;;;;;;5015597;28;20220;-61
2022/01/15 01:44:41;;;;;;;41.25;17.05;;;;;;;;;;5015879;28;20278;-61
2022/01/15 01:47:19;;;;;;;39.30;17.43;;;;;;;;;;5015555;28;20238;-61
2022/01/15 01:49:44;;;;;;;40.23;18.20;;;;;;;;;;4999318;28;20215;-61
2022/01/15 01:52:09;;;;;;;48.72;18.05;;;;;;;;;;5015494;28;20228;-61
2022/01/15 01:54:35;;;;;;;35.53;16.40;;;;;;;;;;5016217;28;20215;-61
2022/01/15 01:57:00;;;;;;;32.50;15.80;;;;;;;;;;5014926;28;20627;-63
2022/01/15 01:59:27;;;;;;;37.13;16.87;;;;;;;;;;5015700;28;20295;-61
2022/01/15 02:01:52;;;;;;;38.53;15.37;;;;;;;;;;4981769;28;20213;-61
2022/01/15 02:04:18;;;;;;;41.93;16.80;;;;;;;;;;4995059;28;20224;-61
2022/01/15 02:06:43;;;;;;;36.40;16.35;;;;;;;;;;4996645;28;20217;-60
2022/01/15 02:09:08;;;;;;;41.60;17.23;;;;;;;;;;4978277;28;20348;-61
2022/01/15 02:11:33;;;;;;;34.00;15.47;;;;;;;;;;4995602;28;20240;-61
2022/01/15 02:13:59;;;;;;;31.10;14.67;;;;;;;;;;4996308;28;20664;-61
2022/01/15 02:16:24;;;;;;;34.73;15.33;;;;;;;;;;4990069;28;20665;-61
2022/01/15 02:18:55;;;;;;;34.13;15.83;;;;;;;;;;4975868;28;20303;-61
2022/01/15 02:23:47;;;;;;;36.07;16.40;;;;;;;;;;4990362;28;20220;-61
2022/01/15 02:26:24;;;;;;;33.63;15.70;;;;;;;;;;4994884;28;20263;-61
2022/01/15 02:28:52;;;;;;;34.77;15.27;;;;;;;;;;4996024;28;20553;-61
2022/01/15 02:31:18;;;;;;;29.47;14.30;;;;;;;;;;4994751;28;20224;-61
2022/01/15 02:33:43;;;;;;;32.67;14.27;;;;;;;;;;4993328;28;20209;-61
2022/01/15 02:36:10;;;;;;;32.87;14.23;;;;;;;;;;4995424;28;20285;-61
2022/01/15 02:38:36;;;;;;;30.10;14.50;;;;;;;;;;4995078;28;20217;-61
2022/01/15 02:41:01;;;;;;;29.97;14.63;;;;;;;;;;4994083;28;20244;-61
2022/01/15 02:43:32;;;;;;;29.33;14.07;;;;;;;;;;4995787;28;20213;-61
2022/01/15 02:45:58;;;;;;;27.63;13.20;;;;;;;;;;4995064;28;20267;-61
2022/01/15 02:48:25;;;;;;;29.73;13.90;;;;;;;;;;4995283;28;20214;-61
2022/01/15 02:50:50;;;;;;;27.23;13.07;;;;;;;;;;4995441;28;20224;-61
2022/01/15 02:53:17;;;;;;;29.27;13.10;;;;;;;;;;4994490;28;20229;-61
2022/01/15 02:55:42;;;;;;;29.60;13.20;;;;;;;;;;4995733;28;20593;-61
2022/01/15 02:58:08;;;;;;;29.13;13.17;;;;;;;;;;4995301;28;20214;-61
2022/01/15 03:00:33;;;;;;;33.03;13.95;;;;;;;;;;4986990;28;20212;-61
2022/01/15 03:02:58;;;;;;;31.55;13.80;;;;;;;;;;4974735;28;20746;-61
2022/01/15 03:05:24;;;;;;;27.50;12.37;;;;;;;;;;4974118;28;20210;-61
2022/01/15 03:07:49;;;;;;;28.53;12.90;;;;;;;;;;4975405;28;20289;-61
2022/01/15 03:10:15;;;;;;;24.77;11.83;;;;;;;;;;4975582;28;20630;-61
2022/01/15 03:12:40;;;;;;;33.47;14.00;;;;;;;;;;4975827;28;20582;-61
2022/01/15 03:15:07;;;;;;;27.63;12.57;;;;;;;;;;4973222;28;20206;-61
2022/01/15 03:17:32;;;;;;;32.93;13.33;;;;;;;;;;4961018;28;20709;-61
2022/01/15 03:19:58;;;;;;;30.63;12.73;;;;;;;;;;4958971;28;20230;-61
2022/01/15 03:22:23;;;;;;;27.27;12.43;;;;;;;;;;4986536;28;20217;-61
2022/01/15 03:24:49;;;;;;;26.10;12.30;;;;;;;;;;5014695;28;20223;-61
2022/01/15 03:27:14;;;;;;;24.90;11.27;;;;;;;;;;5013346;28;20220;-61
2022/01/15 03:29:39;;;;;;;29.00;11.70;;;;;;;;;;5014432;28;20244;-61
2022/01/15 03:32:05;;;;;;;28.47;11.53;;;;;;;;;;5014006;28;20225;-61
2022/01/15 03:34:30;;;;;;;27.43;12.20;;;;;;;;;;5013346;28;20228;-61
2022/01/15 03:36:56;;;;;;;23.20;10.57;;;;;;;;;;5014400;28;20216;-60
2022/01/15 03:39:21;;;;;;;23.97;11.20;;;;;;;;;;4996215;28;20613;-60
2022/01/15 03:41:46;;;;;;;28.37;12.00;;;;;;;;;;5013250;28;20223;-60
2022/01/15 03:44:11;;;;;;;22.37;10.40;;;;;;;;;;5013672;28;20219;-61
2022/01/15 03:46:37;;;;;;;23.63;11.47;;;;;;;;;;4996673;28;20224;-60
2022/01/15 03:49:02;;;;;;;23.87;10.50;;;;;;;;;;5012695;28;20220;-61
2022/01/15 03:51:27;;;;;;;21.80;10.10;;;;;;;;;;5013893;28;20243;-61
2022/01/15 03:53:52;;;;;;;27.47;10.97;;;;;;;;;;5014271;28;20311;-61
2022/01/15 03:56:18;;;;;;;20.23;9.97;;;;;;;;;;5012405;28;20220;-61
2022/01/15 03:58:43;;;;;;;20.57;9.70;;;;;;;;;;5014187;28;20208;-60
2022/01/15 04:01:08;;;;;;;19.90;9.40;;;;;;;;;;4984685;28;20236;-61
2022/01/15 04:03:34;;;;;;;19.53;9.83;;;;;;;;;;4993431;28;20629;-61
2022/01/15 04:05:59;;;;;;;18.00;9.20;;;;;;;;;;4993952;28;20240;-60
2022/01/15 04:08:24;;;;;;;18.27;9.17;;;;;;;;;;4993781;28;20216;-61
2022/01/15 04:10:49;;;;;;;21.53;9.43;;;;;;;;;;4993132;28;20210;-61
2022/01/15 04:13:16;;;;;;;19.30;9.17;;;;;;;;;;4993427;28;20321;-61
2022/01/15 04:15:41;;;;;;;19.60;9.17;;;;;;;;;;4994058;28;20252;-61
2022/01/15 04:18:07;;;;;;;22.50;9.87;;;;;;;;;;4956029;28;20225;-61
2022/01/15 04:20:32;;;;;;;15.23;8.57;;;;;;;;;;4974141;28;20320;-61
2022/01/15 04:22:57;;;;;;;18.13;9.13;;;;;;;;;;4995754;28;20216;-61
2022/01/15 04:25:23;;;;;;;17.40;9.13;;;;;;;;;;5011977;28;20296;-61
2022/01/15 04:27:48;;;;;;;17.63;9.43;;;;;;;;;;5013364;28;20224;-61
2022/01/15 04:30:13;;;;;;;22.27;10.57;;;;;;;;;;4995123;28;20612;-61
2022/01/15 04:32:39;;;;;;;21.53;10.47;;;;;;;;;;5012711;28;20228;-60
2022/01/15 04:35:05;;;;;;;22.57;11.10;;;;;;;;;;5012600;28;20229;-60
2022/01/15 04:37:37;;;;;;;18.27;9.83;;;;;;;;;;4995099;28;20694;-60
2022/01/15 04:40:03;;;;;;;18.10;9.97;;;;;;;;;;5012729;28;20347;-60
2022/01/15 04:42:29;;;;;;;20.13;10.73;;;;;;;;;;5013349;28;20213;-61
2022/01/15 04:44:55;;;;;;;17.40;9.60;;;;;;;;;;5012229;28;20220;-60
2022/01/15 04:47:20;;;;;;;16.23;9.03;;;;;;;;;;5012877;28;20235;-60
2022/01/15 04:49:45;;;;;;;24.63;11.53;;;;;;;;;;5013190;28;20296;-61
2022/01/15 04:52:11;;;;;;;20.10;11.20;;;;;;;;;;5011546;28;20231;-61
2022/01/15 04:54:36;;;;;;;24.10;11.77;;;;;;;;;;5013269;28;20625;-60
2022/01/15 04:57:02;;;;;;;27.53;12.33;;;;;;;;;;5011684;28;20219;-61
2022/01/15 04:59:27;;;;;;;30.50;12.57;;;;;;;;;;5012273;28;20239;-60
2022/01/15 05:01:52;;;;;;;22.40;11.67;;;;;;;;;;4995848;28;20209;-61
2022/01/15 05:04:17;;;;;;;26.37;12.60;;;;;;;;;;4992724;28;20206;-61
2022/01/15 05:06:43;;;;;;;26.07;12.87;;;;;;;;;;4992214;28;20309;-61
2022/01/15 05:09:08;;;;;;;32.20;14.57;;;;;;;;;;4993018;28;20236;-61
2022/01/15 05:11:46;;;;;;;29.00;13.83;;;;;;;;;;4993027;28;20587;-61
2022/01/15 05:14:12;;;;;;;31.37;13.93;;;;;;;;;;4991860;28;20224;-61
2022/01/15 05:16:38;;;;;;;34.40;16.23;;;;;;;;;;4985659;28;20270;-61
2022/01/15 05:19:03;;;;;;;28.40;14.70;;;;;;;;;;4973261;28;20221;-61
2022/01/15 05:21:28;;;;;;;29.40;15.70;;;;;;;;;;4972823;28;20268;-61
2022/01/15 05:23:54;;;;;;;30.03;15.63;;;;;;;;;;5010131;28;20694;-61
2022/01/15 05:26:19;;;;;;;30.27;16.13;;;;;;;;;;5011969;28;20266;-61
2022/01/15 05:28:44;;;;;;;27.97;15.37;;;;;;;;;;5011715;28;20220;-61
2022/01/15 05:31:09;;;;;;;29.60;16.10;;;;;;;;;;4994721;28;20240;-61
2022/01/15 05:33:35;;;;;;;30.93;16.13;;;;;;;;;;5012421;28;20588;-60
2022/01/15 05:36:00;;;;;;;35.97;16.53;;;;;;;;;;5011518;28;20216;-61
2022/01/15 05:38:26;;;;;;;32.73;16.40;;;;;;;;;;5012218;28;20212;-60
2022/01/15 05:40:51;;;;;;;27.30;14.47;;;;;;;;;;5011635;28;20252;-60
2022/01/15 05:43:17;;;;;;;29.03;14.60;;;;;;;;;;5011935;28;20220;-60
2022/01/15 05:45:42;;;;;;;28.53;14.80;;;;;;;;;;5012454;28;20755;-61
2022/01/15 05:48:07;;;;;;;32.97;15.80;;;;;;;;;;5011139;28;20610;-61
2022/01/15 05:50:32;;;;;;;27.92;14.15;;;;;;;;;;4995041;28;20244;-61
2022/01/15 05:52:58;;;;;;;28.80;13.47;;;;;;;;;;4994415;28;20235;-60
2022/01/15 05:55:24;;;;;;;27.93;13.83;;;;;;;;;;5011516;28;20227;-61
2022/01/15 05:57:49;;;;;;;38.33;16.63;;;;;;;;;;5012151;28;20565;-60
2022/01/15 06:00:15;;;;;;;27.27;14.60;;;;;;;;;;5008279;28;20217;-60
2022/01/15 06:02:40;;;;;;;27.20;13.77;;;;;;;;;;4991908;28;20244;-60
2022/01/15 06:05:05;;;;;;;24.95;13.77;;;;;;;;;;4992309;28;20589;-61
2022/01/15 06:07:31;;;;;;;24.70;13.00;;;;;;;;;;4993253;28;20605;-60
2022/01/15 06:09:56;;;;;;;27.83;14.37;;;;;;;;;;4995787;28;20225;-60
2022/01/15 06:12:28;;;;;;;27.23;14.10;;;;;;;;;;4995489;28;20232;-61
2022/01/15 06:14:53;;;;;;;24.37;13.07;;;;;;;;;;4979030;28;20259;-60
2022/01/15 06:17:18;;;;;;;25.67;13.17;;;;;;;;;;4981913;28;20297;-61
2022/01/15 06:19:44;;;;;;;23.67;12.70;;;;;;;;;;4976702;28;20218;-61
2022/01/15 06:22:09;;;;;;;23.07;12.63;;;;;;;;;;4967000;28;20615;-61
2022/01/15 06:24:34;;;;;;;28.53;14.07;;;;;;;;;;5015137;28;20224;-61
2022/01/15 06:26:59;;;;;;;20.80;12.63;;;;;;;;;;5015612;28;20309;-61
2022/01/15 06:29:25;;;;;;;40.13;15.20;;;;;;;;;;4997597;28;20220;-60
2022/01/15 06:31:52;;;;;;;31.93;14.50;;;;;;;;;;5014644;28;20632;-61
2022/01/15 06:34:17;;;;;;;33.40;15.00;;;;;;;;;;5015167;28;20336;-61
2022/01/15 06:36:42;;;;;;;29.93;14.87;;;;;;;;;;5015540;28;20292;-61
2022/01/15 06:39:08;;;;;;;31.97;15.20;;;;;;;;;;5013905;28;20239;-61
2022/01/15 06:41:33;;;;;;;40.70;15.33;;;;;;;;;;5015239;28;20307;-61
2022/01/15 06:43:58;;;;;;;29.13;14.13;;;;;;;;;;5015490;28;20242;-61
2022/01/15 06:46:24;;;;;;;34.70;15.87;;;;;;;;;;5013849;28;20651;-61
2022/01/15 06:48:49;;;;;;;39.90;16.73;;;;;;;;;;5015223;28;20212;-61
2022/01/15 06:51:14;;;;;;;47.90;16.63;;;;;;;;;;5014101;28;20243;-61
2022/01/15 06:53:40;;;;;;;53.67;18.13;;;;;;;;;;5014794;28;20287;-61
2022/01/15 06:56:05;;;;;;;48.57;17.17;;;;;;;;;;4997032;28;20299;-61
2022/01/15 06:58:30;;;;;;;35.10;15.60;;;;;;;;;;4996545;28;20224;-61
2022/01/15 07:00:56;;;;;;;29.63;15.87;;;;;;;;;;5005727;28;20312;-61
2022/01/15 07:03:21;;;;;;;29.27;14.70;;;;;;;;;;4995009;28;20264;-61
2022/01/15 07:05:46;;;;;;;31.97;15.00;;;;;;;;;;4994564;28;20220;-61
2022/01/15 07:08:11;;;;;;;22.73;13.27;;;;;;;;;;4994499;28;20229;-61
2022/01/15 07:10:43;;;;;;;39.33;15.03;;;;;;;;;;4977905;28;20213;-61
2022/01/15 07:13:09;;;;;;;69.60;17.30;;;;;;;;;;4976257;28;20629;-61
2022/01/15 07:15:34;;;;;;;31.13;14.63;;;;;;;;;;4995438;28;20205;-61
2022/01/15 07:17:59;;;;;;;26.57;15.07;;;;;;;;;;4959247;28;20684;-61
2022/01/15 07:20:25;;;;;;;23.63;13.17;;;;;;;;;;4973500;28;20624;-61
2022/01/15 07:22:50;;;;;;;23.70;13.97;;;;;;;;;;4994732;28;20212;-61
2022/01/15 07:25:15;;;;;;;37.57;14.70;;;;;;;;;;4996648;28;20684;-61
2022/01/15 07:27:41;;;;;;;26.20;14.33;;;;;;;;;;4996091;28;20208;-60
2022/01/15 07:30:07;;;;;;;27.27;15.53;;;;;;;;;;5013998;28;20299;-60
2022/01/15 07:32:32;;;;;;;30.53;15.37;;;;;;;;;;5013928;28;20302;-61
2022/01/15 07:34:58;;;;;;;29.33;15.87;;;;;;;;;;5013381;28;20213;-60
2022/01/15 07:37:23;;;;;;;49.40;19.15;;;;;;;;;;5012911;28;20818;-60
2022/01/15 07:39:48;;;;;;;29.50;16.40;;;;;;;;;;5013872;28;20228;-60
2022/01/15 07:42:14;;;;;;;35.53;17.43;;;;;;;;;;5012710;28;20208;-59
2022/01/15 07:44:39;;;;;;;31.83;17.50;;;;;;;;;;5014063;28;20270;-60
2022/01/15 07:47:05;;;;;;;53.97;20.57;;;;;;;;;;5013527;28;20227;-61
2022/01/15 07:49:32;;;;;;;67.57;21.67;;;;;;;;;;5012978;28;20219;-60
2022/01/15 07:51:57;;;;;;;42.70;21.00;;;;;;;;;;5013877;28;20243;-60
2022/01/15 07:54:23;;;;;;;65.13;22.23;;;;;;;;;;5012971;28;20216;-60
2022/01/15 07:56:48;;;;;;;40.37;21.17;;;;;;;;;;5013252;28;20270;-61
2022/01/15 07:59:13;;;;;;;47.13;22.37;;;;;;;;;;5013128;28;20287;-61
2022/01/15 08:01:38;;;;;;;59.73;23.33;;;;;;;;;;4980633;28;20308;-60
2022/01/15 08:04:04;;;;;;;70.57;24.33;;;;;;;;;;4993555;28;20213;-61
2022/01/15 08:06:29;;;;;;;75.33;25.43;;;;;;;;;;4994080;28;20592;-60
2022/01/15 08:08:54;;;;;;;59.10;24.67;;;;;;;;;;4993004;28;20213;-59
2022/01/15 08:11:20;;;;;;;52.57;24.43;;;;;;;;;;4993356;28;20312;-60
2022/01/15 08:13:45;;;;;;;59.63;25.30;;;;;;;;;;4976354;28;20221;-60
2022/01/15 08:16:10;;;;;;;77.53;28.90;;;;;;;;;;4988953;28;20241;-61
2022/01/15 08:18:36;;;;;;;53.63;25.23;;;;;;;;;;4974270;28;20225;-61
2022/01/15 08:21:03;;;;;;;57.73;23.87;;;;;;;;;;4953384;28;20277;-61
2022/01/15 08:23:29;;;;;;;54.87;24.97;;;;;;;;;;4983706;28;20224;-61
2022/01/15 08:25:54;;;;;;;60.03;25.80;;;;;;;;;;4993773;28;20213;-61
2022/01/15 08:28:19;;;;;;;110.33;27.97;;;;;;;;;;4993137;28;20216;-61
2022/01/15 08:30:44;;;;;;;81.50;27.00;;;;;;;;;;4992973;28;20243;-61
2022/01/15 08:33:10;;;;;;;99.10;28.53;;;;;;;;;;4991904;28;20241;-60
2022/01/15 08:35:35;;;;;;;88.10;27.60;;;;;;;;;;4993691;28;20209;-62
2022/01/15 08:38:03;;;;;;;79.73;26.87;;;;;;;;;;4992486;28;20248;-62
2022/01/15 08:40:29;;;;;;;115.70;30.70;;;;;;;;;;4992297;28;20224;-61
2022/01/15 08:42:54;;;;;;;67.07;27.80;;;;;;;;;;4963248;28;20214;-61
2022/01/15 08:45:20;;;;;;;81.27;29.70;;;;;;;;;;4958687;28;20273;-61
2022/01/15 08:47:45;;;;;;;75.90;26.70;;;;;;;;;;4966732;28;20579;-60
2022/01/15 08:50:11;;;;;;;92.67;28.23;;;;;;;;;;4973535;28;20209;-62
2022/01/15 08:52:36;;;;;;;89.67;29.33;;;;;;;;;;4973266;28;20337;-61
2022/01/15 08:55:02;;;;;;;71.57;28.57;;;;;;;;;;4972420;28;20209;-61
2022/01/15 08:57:27;;;;;;;67.13;28.10;;;;;;;;;;4974033;28;20210;-61
2022/01/15 08:59:53;;;;;;;76.57;30.40;;;;;;;;;;4972298;28;20213;-61
2022/01/15 09:02:18;;;;;;;84.50;29.37;;;;;;;;;;4954171;28;20210;-61
2022/01/15 09:04:44;;;;;;;84.90;28.20;;;;;;;;;;4954205;28;20578;-61
2022/01/15 09:07:10;;;;;;;98.10;28.80;;;;;;;;;;4954024;28;20210;-61
2022/01/15 09:09:35;;;;;;;95.73;28.47;;;;;;;;;;4954454;28;20670;-61
2022/01/15 09:12:00;;;;;;;94.03;27.53;;;;;;;;;;4953058;28;20238;-61
2022/01/15 09:14:26;;;;;;;141.33;29.90;;;;;;;;;;4952960;28;20559;-61
2022/01/15 09:16:51;;;;;;;94.47;28.87;;;;;;;;;;4963671;28;20305;-61
2022/01/15 09:19:16;;;;;;;135.77;29.47;;;;;;;;;;4972364;28;20217;-62
2022/01/15 09:21:42;;;;;;;88.97;28.33;;;;;;;;;;4972874;28;20248;-61
2022/01/15 09:24:07;;;;;;;135.40;30.97;;;;;;;;;;4991420;28;20217;-61
2022/01/15 09:26:48;;;;;;;69.10;28.70;;;;;;;;;;4992248;28;20236;-63
2022/01/15 09:31:57;;;;;;;85.83;27.33;;;;;;;;;;4992799;28;20227;-64
2022/01/15 09:34:23;;;;;;;58.80;25.27;;;;;;;;;;4991675;28;20303;-64
2022/01/15 09:36:48;;;;;;;56.17;24.33;;;;;;;;;;4976037;28;20597;-65
2022/01/15 09:39:14;;;;;;;49.43;23.17;;;;;;;;;;4963588;28;20589;-65
2022/01/15 09:41:42;;;;;;;51.87;23.47;;;;;;;;;;4954250;28;20223;-65
2022/01/15 09:44:07;;;;;;;46.63;23.87;;;;;;;;;;4955509;28;20221;-64
2022/01/15 09:46:32;;;;;;;62.50;24.50;;;;;;;;;;4956770;28;20222;-65
2022/01/15 09:48:57;;;;;;;41.83;22.13;;;;;;;;;;4955707;28;20238;-65
2022/01/15 09:51:23;;;;;;;78.87;25.90;;;;;;;;;;4956457;28;20222;-64
2022/01/15 09:53:48;;;;;;;75.60;26.83;;;;;;;;;;4956688;28;20246;-65
2022/01/15 09:56:13;;;;;;;73.40;24.50;;;;;;;;;;4957382;28;20220;-60
2022/01/15 09:58:38;;;;;;;132.33;27.77;;;;;;;;;;4976969;28;20225;-60
2022/01/15 10:01:05;;;;;;;79.78;29.60;;;;;;;;;;4965581;28;20694;-60
2022/01/15 10:03:30;;;;;;;89.67;27.27;;;;;;;;;;4957564;28;20250;-59
2022/01/15 10:05:55;;;;;;;73.10;30.23;;;;;;;;;;4957629;28;20686;-60
2022/01/15 10:08:21;;;;;;;61.77;26.40;;;;;;;;;;4956260;28;20259;-59
2022/01/15 10:10:47;;;;;;;57.00;24.93;;;;;;;;;;4957232;28;20211;-59
2022/01/15 10:13:14;;;;;;;54.17;25.03;;;;;;;;;;4955466;28;20234;-59
2022/01/15 10:15:40;;;;;;;46.92;24.52;;;;;;;;;;4956496;28;20223;-59
2022/01/15 10:18:18;;;;;;;134.03;27.20;;;;;;;;;;4974576;28;20241;-59
2022/01/15 10:20:44;;;;;;;85.63;26.77;;;;;;;;;;4985460;28;20232;-59
2022/01/15 10:23:14;;;;;;;58.87;24.40;;;;;;;;;;5006957;28;20208;-59
2022/01/15 10:25:39;;;;;;;128.33;29.40;;;;;;;;;;5015052;28;20215;-59
2022/01/15 10:28:04;;;;;;;110.30;27.77;;;;;;;;;;5004426;28;20296;-59
2022/01/15 10:30:30;;;;;;;71.93;27.37;;;;;;;;;;4980894;28;20699;-59
2022/01/15 10:32:55;;;;;;;83.87;28.27;;;;;;;;;;4959110;28;20238;-59
2022/01/15 10:35:22;;;;;;;104.30;28.93;;;;;;;;;;4975891;28;20222;-60
2022/01/15 10:37:47;;;;;;;85.47;28.20;;;;;;;;;;4975553;28;20577;-59
2022/01/15 10:40:12;;;;;;;141.33;29.87;;;;;;;;;;4975587;28;20233;-59
2022/01/15 10:42:38;;;;;;;69.97;26.77;;;;;;;;;;4958647;28;20224;-59
2022/01/15 10:45:08;;;;;;;127.00;26.63;;;;;;;;;;4974843;28;20214;-58
2022/01/15 10:47:35;;;;;;;101.03;25.10;;;;;;;;;;4976222;28;20226;-59
2022/01/15 10:50:02;;;;;;;130.50;26.70;;;;;;;;;;4958728;28;20562;-59
2022/01/15 10:52:27;;;;;;;87.33;26.73;;;;;;;;;;4974780;28;20245;-59
2022/01/15 10:54:55;;;;;;;102.43;27.77;;;;;;;;;;4957280;28;20252;-59
2022/01/15 10:57:21;;;;;;;108.17;28.70;;;;;;;;;;4957255;28;20217;-59
2022/01/15 10:59:54;;;;;;;75.00;26.97;;;;;;;;;;4958525;28;20284;-59
2022/01/15 11:02:20;;;;;;;61.20;24.93;;;;;;;;;;4975359;28;20703;-59
2022/01/15 11:04:45;;;;;;;60.80;22.53;;;;;;;;;;4975164;28;20214;-59
2022/01/15 11:07:11;;;;;;;54.67;22.60;;;;;;;;;;4975574;28;20229;-59
2022/01/15 11:09:36;;;;;;;44.17;20.83;;;;;;;;;;4958128;28;20569;-59
2022/01/15 11:12:02;;;;;;;44.30;21.57;;;;;;;;;;4974354;28;20253;-58
2022/01/15 11:14:27;;;;;;;43.20;22.17;;;;;;;;;;4975500;28;20220;-59
2022/01/15 11:16:54;;;;;;;51.93;23.33;;;;;;;;;;4985250;28;20213;-59
2022/01/15 11:19:20;;;;;;;62.23;23.90;;;;;;;;;;4976366;28;20360;-59
2022/01/15 11:21:45;;;;;;;47.13;23.90;;;;;;;;;;4978137;28;20340;-59
2022/01/15 11:24:11;;;;;;;64.53;22.73;;;;;;;;;;4996632;28;20296;-59
2022/01/15 11:26:37;;;;;;;47.27;22.70;;;;;;;;;;4995904;28;20220;-59
2022/01/15 11:29:02;;;;;;;98.53;24.33;;;;;;;;;;5013646;28;20216;-59
2022/01/15 11:31:30;;;;;;;59.83;21.87;;;;;;;;;;5014467;28;20216;-59
2022/01/15 11:33:56;;;;;;;58.70;21.77;;;;;;;;;;5013652;28;20230;-59
2022/01/15 11:36:29;;;;;;;45.05;22.38;;;;;;;;;;4996349;28;20213;-59
2022/01/15 11:38:54;;;;;;;62.83;23.20;;;;;;;;;;4996949;28;20295;-59
2022/01/15 11:41:33;;;;;;;121.13;25.77;;;;;;;;;;5012536;28;20367;-59
2022/01/15 11:43:59;;;;;;;62.77;22.63;;;;;;;;;;5013930;28;20316;-59
2022/01/15 11:46:25;;;;;;;41.13;20.20;;;;;;;;;;5013471;28;20719;-59
2022/01/15 11:48:51;;;;;;;67.73;21.70;;;;;;;;;;5013198;28;20216;-59
2022/01/15 11:51:17;;;;;;;78.97;23.57;;;;;;;;;;5013372;28;20220;-59
2022/01/15 11:53:50;;;;;;;75.37;22.60;;;;;;;;;;5012953;28;20278;-59
2022/01/15 11:56:16;;;;;;;46.20;22.23;;;;;;;;;;4995740;28;20232;-59
2022/01/15 11:58:41;;;;;;;55.17;21.37;;;;;;;;;;4996240;28;20687;-59
2022/01/15 12:01:07;;;;;;;65.20;21.43;;;;;;;;;;4984310;28;20256;-59
2022/01/15 12:03:38;;;;;;;57.23;22.97;;;;;;;;;;4994174;28;20220;-59
2022/01/15 12:06:03;;;;;;;49.97;22.23;;;;;;;;;;4976046;28;20236;-59
2022/01/15 12:08:30;;;;;;;46.23;22.73;;;;;;;;;;4993453;28;20225;-59
2022/01/15 12:10:56;;;;;;;80.33;23.93;;;;;;;;;;4993979;28;20300;-59
2022/01/15 12:13:23;;;;;;;53.33;23.53;;;;;;;;;;4976201;28;20773;-59
2022/01/15 12:15:49;;;;;;;44.23;22.03;;;;;;;;;;4992163;28;20212;-59
2022/01/15 12:18:18;;;;;;;43.00;21.80;;;;;;;;;;4974004;28;20690;-59
2022/01/15 12:20:43;;;;;;;60.03;21.77;;;;;;;;;;4957059;28;20598;-59
2022/01/15 12:23:17;;;;;;;68.50;24.20;;;;;;;;;;4980003;28;20672;-59
2022/01/15 12:25:44;;;;;;;55.77;23.50;;;;;;;;;;5013199;28;20220;-59
2022/01/15 12:28:09;;;;;;;43.97;22.23;;;;;;;;;;5012828;28;20220;-59
2022/01/15 12:30:36;;;;;;;40.30;22.00;;;;;;;;;;5012415;28;20212;-59
2022/01/15 12:33:02;;;;;;;43.30;23.03;;;;;;;;;;5012750;28;20810;-59
2022/01/15 12:35:29;;;;;;;42.07;22.30;;;;;;;;;;5013158;28;20303;-59
2022/01/15 12:37:55;;;;;;;46.03;20.97;;;;;;;;;;4994824;28;20291;-59
2022/01/15 12:40:22;;;;;;;37.75;19.42;;;;;;;;;;5012440;28;20216;-59
2022/01/15 12:42:55;;;;;;;35.87;19.27;;;;;;;;;;4994834;28;20705;-59
2022/01/15 12:45:20;;;;;;;39.23;20.50;;;;;;;;;;5012617;28;20212;-59
2022/01/15 12:47:46;;;;;;;35.17;19.97;;;;;;;;;;5013031;28;20220;-59
2022/01/15 12:50:12;;;;;;;39.97;21.90;;;;;;;;;;4994226;28;20208;-59
2022/01/15 12:52:37;;;;;;;40.03;20.55;;;;;;;;;;5012905;28;20223;-59
2022/01/15 12:55:02;;;;;;;36.83;20.00;;;;;;;;;;5012236;28;20212;-58
2022/01/15 12:57:51;;;;;;;42.93;19.70;;;;;;;;;;5012031;28;20553;-59
2022/01/15 13:00:18;;;;;;;43.50;20.33;;;;;;;;;;4991051;28;20201;-59
2022/01/15 13:02:43;;;;;;;55.80;20.50;;;;;;;;;;4986089;28;20213;-59
2022/01/15 13:05:09;;;;;;;91.10;22.03;;;;;;;;;;4981923;28;20223;-59
2022/01/15 13:07:46;;;;;;;42.70;21.73;;;;;;;;;;4956541;28;20220;-59
2022/01/15 13:10:23;;;;;;;45.70;21.23;;;;;;;;;;4972807;28;20220;-59
2022/01/15 13:12:48;;;;;;;42.70;21.17;;;;;;;;;;4972772;28;20288;-59
2022/01/15 13:15:21;;;;;;;37.33;18.03;;;;;;;;;;4974526;28;20217;-59
2022/01/15 13:17:46;;;;;;;42.83;20.53;;;;;;;;;;4975346;28;20237;-59
2022/01/15 13:20:25;;;;;;;72.30;23.13;;;;;;;;;;4987732;28;20213;-59
2022/01/15 13:22:51;;;;;;;86.43;23.57;;;;;;;;;;4968928;28;20267;-59
2022/01/15 13:25:19;;;;;;;43.43;21.50;;;;;;;;;;5010840;28;20573;-59
2022/01/15 13:27:44;;;;;;;48.40;20.00;;;;;;;;;;5012282;28;20220;-59
2022/01/15 13:30:10;;;;;;;40.90;20.47;;;;;;;;;;4992721;28;20255;-59
2022/01/15 13:32:35;;;;;;;54.80;19.90;;;;;;;;;;4972370;28;20238;-59
2022/01/15 13:35:11;;;;;;;50.83;20.73;;;;;;;;;;4956372;28;20218;-60
2022/01/15 13:37:41;;;;;;;46.83;21.70;;;;;;;;;;4972724;28;20224;-61
2022/01/15 13:40:07;;;;;;;84.87;24.50;;;;;;;;;;4956445;28;20216;-59
2022/01/15 13:42:35;;;;;;;53.57;23.63;;;;;;;;;;4992450;28;20691;-59
2022/01/15 13:45:04;;;;;;;50.00;21.40;;;;;;;;;;4992530;28;20217;-60
2022/01/15 13:47:32;;;;;;;61.10;22.37;;;;;;;;;;5000033;28;20216;-60
2022/01/15 13:55:27;;;;;;;53.27;23.57;;;;;;;;;;4957139;28;20219;-59
2022/01/15 13:57:54;;;;;;;62.73;24.63;;;;;;;;;;4956036;28;20214;-60
2022/01/15 14:00:20;;;;;;;86.13;27.23;;;;;;;;;;4958824;28;20209;-60
2022/01/15 14:02:45;;;;;;;62.77;26.63;;;;;;;;;;4974815;28;20236;-60
2022/01/15 14:05:11;;;;;;;56.90;26.93;;;;;;;;;;4974806;28;20263;-60
2022/01/15 14:07:37;;;;;;;82.20;27.47;;;;;;;;;;4991879;28;20213;-60
2022/01/15 14:10:06;;;;;;;82.90;28.30;;;;;;;;;;4991581;28;20312;-59
2022/01/15 14:12:32;;;;;;;77.00;28.77;;;;;;;;;;4975010;28;20222;-60
2022/01/15 14:15:03;;;;;;;77.43;30.40;;;;;;;;;;4991494;28;20218;-60
2022/01/15 14:17:28;;;;;;;113.13;30.60;;;;;;;;;;4977732;28;20233;-60
2022/01/15 14:22:24;;;;;;;68.33;28.27;;;;;;;;;;4983682;28;20248;-60
2022/01/15 14:24:50;;;;;;;93.60;28.47;;;;;;;;;;4981905;28;20214;-60
2022/01/15 14:27:17;;;;;;;74.67;27.80;;;;;;;;;;4972146;28;20580;-60
2022/01/15 14:29:42;;;;;;;72.13;29.60;;;;;;;;;;4972271;28;20698;-60
2022/01/15 14:32:08;;;;;;;76.17;30.67;;;;;;;;;;4995307;28;20221;-60
2022/01/15 14:34:33;;;;;;;86.33;31.37;;;;;;;;;;4995988;28;20223;-60
2022/01/15 14:36:59;;;;;;;130.50;31.57;;;;;;;;;;4977386;28;20213;-60
2022/01/15 14:39:24;;;;;;;64.77;27.00;;;;;;;;;;4994640;28;20220;-60